createdAt,value
2022-12-31T00:02:36.120Z,65.02
2022-12-31T00:05:37.881Z,65.09
2022-12-31T00:08:39.320Z,65.09
2022-12-31T00:11:40.837Z,65.01
2022-12-31T00:14:42.282Z,65.11
2022-12-31T00:17:43.850Z,64.92
2022-12-31T00:20:45.308Z,65.04
2022-12-31T00:23:47.738Z,65.11
2022-12-31T00:26:49.240Z,65.05
2022-12-31T00:29:50.709Z,65.14
2022-12-31T00:32:52.882Z,65.10
2022-12-31T00:35:54.341Z,64.91
2022-12-31T00:38:57.415Z,65.06
2022-12-31T00:41:58.955Z,65.03
2022-12-31T00:45:00.391Z,65.04
2022-12-31T00:48:01.833Z,65.19
2022-12-31T00:51:05.140Z,65.19
2022-12-31T00:54:06.682Z,64.95
2022-12-31T00:57:08.176Z,65.18
2022-12-31T01:00:10.551Z,65.06
2022-12-31T01:03:12.088Z,65.08
2022-12-31T01:06:13.972Z,65.05
2022-12-31T01:09:16.690Z,65.06
2022-12-31T01:12:18.187Z,64.91
2022-12-31T01:15:19.626Z,65.08
2022-12-31T01:18:21.094Z,65.03
2022-12-31T01:21:22.829Z,65.01
2022-12-31T01:24:24.629Z,65.09
2022-12-31T01:27:26.169Z,65.07
2022-12-31T01:30:27.673Z,65.08
2022-12-31T01:33:29.195Z,65.03
2022-12-31T01:36:32.741Z,65.24
2022-12-31T01:39:34.218Z,65.24
2022-12-31T01:42:35.727Z,65.13
2022-12-31T01:45:37.251Z,65.24
2022-12-31T01:48:38.862Z,65.28
2022-12-31T01:51:42.738Z,65.36
2022-12-31T01:54:48.841Z,65.43
2022-12-31T01:57:55.888Z,65.28
2022-12-31T02:00:58.757Z,65.42
2022-12-31T02:04:06.943Z,65.46
2022-12-31T02:07:10.216Z,65.54
2022-12-31T02:10:11.704Z,65.58
2022-12-31T02:13:14.920Z,65.58
2022-12-31T02:16:55.561Z,65.59
2022-12-31T02:20:12.336Z,65.62
2022-12-31T02:23:13.773Z,65.62
2022-12-31T02:26:36.885Z,65.85
2022-12-31T02:29:59.428Z,65.72
2022-12-31T02:33:28.160Z,65.65
2022-12-31T02:36:35.925Z,65.73
2022-12-31T02:39:38.241Z,65.80
2022-12-31T02:42:39.758Z,65.79
2022-12-31T02:45:45.125Z,65.90
2022-12-31T02:49:12.853Z,66.06
2022-12-31T02:52:20.230Z,65.98
2022-12-31T02:55:33.803Z,66.20
2022-12-31T02:59:00.221Z,66.04
2022-12-31T03:02:15.017Z,66.05
2022-12-31T03:05:21.156Z,66.05
2022-12-31T03:08:24.295Z,66.02
2022-12-31T03:11:44.251Z,66.03
2022-12-31T03:14:45.875Z,66.14
2022-12-31T03:17:58.881Z,66.20
2022-12-31T03:21:18.991Z,66.09
2022-12-31T03:24:41.891Z,66.24
2022-12-31T03:27:44.922Z,66.21
2022-12-31T03:30:49.284Z,66.34
2022-12-31T03:33:50.794Z,66.32
2022-12-31T03:36:52.270Z,66.53
2022-12-31T03:39:53.754Z,66.28
2022-12-31T03:42:55.662Z,66.36
2022-12-31T03:45:59.746Z,66.39
2022-12-31T03:49:01.877Z,66.23
2022-12-31T03:52:03.538Z,66.42
2022-12-31T03:55:06.484Z,66.35
2022-12-31T03:58:08.032Z,66.37
2022-12-31T04:01:09.624Z,66.38
2022-12-31T04:04:11.180Z,66.40
2022-12-31T04:07:12.671Z,66.38
2022-12-31T04:10:16.597Z,66.46
2022-12-31T04:13:18.070Z,66.45
2022-12-31T04:16:19.637Z,66.45
2022-12-31T04:19:21.150Z,66.42
2022-12-31T04:22:22.788Z,66.50
2022-12-31T04:25:24.289Z,66.44
2022-12-31T04:28:25.836Z,66.42
2022-12-31T04:31:27.359Z,66.53
2022-12-31T04:34:28.833Z,66.32
2022-12-31T04:37:30.343Z,66.57
2022-12-31T04:40:32.161Z,66.69
2022-12-31T04:43:33.649Z,66.65
2022-12-31T04:46:35.934Z,66.58
2022-12-31T04:49:37.420Z,66.58
2022-12-31T04:52:42.917Z,66.62
2022-12-31T04:55:45.423Z,66.74
2022-12-31T04:58:47.267Z,66.79
2022-12-31T05:01:48.968Z,66.86
2022-12-31T05:04:50.599Z,66.83
2022-12-31T05:07:52.565Z,66.85
2022-12-31T05:10:54.171Z,66.88
2022-12-31T05:13:57.342Z,66.82
2022-12-31T05:16:59.296Z,66.80
2022-12-31T05:20:00.868Z,66.66
2022-12-31T05:23:02.442Z,66.86
2022-12-31T05:26:04.118Z,66.82
2022-12-31T05:29:05.641Z,66.74
2022-12-31T05:32:07.144Z,66.78
2022-12-31T05:35:09.099Z,66.71
2022-12-31T05:38:10.960Z,66.64
2022-12-31T05:41:12.467Z,66.67
2022-12-31T05:44:14.185Z,66.53
2022-12-31T05:47:16.077Z,66.49
2022-12-31T05:50:17.797Z,66.37
2022-12-31T05:53:19.373Z,66.45
2022-12-31T05:56:20.850Z,66.30
2022-12-31T05:59:22.416Z,66.33
2022-12-31T06:02:24.298Z,66.30
2022-12-31T06:05:26.416Z,66.18
2022-12-31T06:08:28.295Z,66.27
2022-12-31T06:11:29.892Z,66.15
2022-12-31T06:14:31.590Z,66.15
2022-12-31T06:17:33.087Z,66.16
2022-12-31T06:20:37.922Z,66.19
2022-12-31T06:23:40.712Z,66.18
2022-12-31T06:26:42.225Z,66.20
2022-12-31T06:29:45.609Z,66.15
2022-12-31T06:32:47.275Z,66.15
2022-12-31T06:35:48.779Z,66.10
2022-12-31T06:38:50.747Z,66.20
2022-12-31T06:41:52.219Z,66.11
2022-12-31T06:44:53.704Z,65.92
2022-12-31T06:47:55.207Z,66.03
2022-12-31T06:50:57.214Z,66.00
2022-12-31T06:53:58.699Z,66.02
2022-12-31T06:57:00.422Z,65.97
2022-12-31T07:00:02.339Z,66.07
2022-12-31T07:03:23.045Z,66.11
2022-12-31T07:06:33.352Z,66.04
2022-12-31T07:09:40.160Z,65.99
2022-12-31T07:13:06.341Z,66.07
2022-12-31T07:16:10.969Z,65.98
2022-12-31T07:20:09.854Z,66.03
2022-12-31T07:23:11.585Z,66.05
2022-12-31T07:26:13.032Z,65.89
2022-12-31T07:29:20.326Z,66.07
2022-12-31T07:32:59.371Z,66.00
2022-12-31T07:36:00.760Z,66.04
2022-12-31T07:39:22.796Z,65.98
2022-12-31T07:42:32.538Z,66.05
2022-12-31T07:45:46.623Z,66.12
2022-12-31T07:48:48.283Z,66.02
2022-12-31T07:51:50.036Z,66.09
2022-12-31T07:54:51.606Z,66.20
2022-12-31T07:58:07.298Z,66.24
2022-12-31T08:01:12.460Z,66.13
2022-12-31T08:04:26.246Z,66.16
2022-12-31T08:07:51.694Z,66.19
2022-12-31T08:11:15.119Z,66.24
2022-12-31T08:14:18.604Z,66.42
2022-12-31T08:17:20.460Z,66.31
2022-12-31T08:20:22.362Z,66.40
2022-12-31T08:23:39.153Z,66.30
2022-12-31T08:26:53.228Z,66.44
2022-12-31T08:30:08.566Z,66.37
2022-12-31T08:33:28.425Z,66.44
2022-12-31T08:36:41.535Z,66.57
2022-12-31T08:40:12.864Z,66.35
2022-12-31T08:43:23.325Z,66.42
2022-12-31T08:46:50.392Z,66.27
2022-12-31T08:49:52.064Z,66.54
2022-12-31T08:52:54.110Z,66.40
2022-12-31T08:56:05.146Z,66.31
2022-12-31T08:59:12.380Z,66.37
2022-12-31T09:02:46.204Z,66.26
2022-12-31T09:05:57.109Z,66.36
2022-12-31T09:09:24.132Z,66.28
2022-12-31T09:12:36.142Z,66.29
2022-12-31T09:15:52.775Z,66.13
2022-12-31T09:18:54.230Z,66.27
2022-12-31T09:21:56.199Z,66.17
2022-12-31T09:24:58.025Z,66.25
2022-12-31T09:28:14.428Z,66.25
2022-12-31T09:31:17.673Z,66.34
2022-12-31T09:34:22.133Z,66.27
2022-12-31T09:37:35.723Z,66.46
2022-12-31T09:40:58.773Z,66.55
2022-12-31T09:44:03.240Z,66.70
2022-12-31T09:47:23.454Z,66.61
2022-12-31T09:50:40.154Z,66.59
2022-12-31T09:53:54.009Z,67.04
2022-12-31T09:57:23.461Z,67.73
2022-12-31T10:00:36.210Z,68.55
2022-12-31T10:03:52.569Z,69.03
2022-12-31T10:07:28.269Z,69.72
2022-12-31T10:10:33.170Z,69.99
2022-12-31T10:13:49.199Z,70.04
2022-12-31T10:17:03.402Z,69.98
2022-12-31T10:20:45.070Z,70.04
2022-12-31T10:24:23.386Z,70.21
2022-12-31T10:27:44.771Z,70.27
2022-12-31T10:31:04.644Z,70.35
2022-12-31T10:34:20.215Z,70.39
2022-12-31T10:37:32.712Z,70.30
2022-12-31T10:40:55.734Z,70.43
2022-12-31T10:44:00.239Z,70.32
2022-12-31T10:47:53.230Z,70.43
2022-12-31T10:51:20.726Z,70.26
2022-12-31T10:54:49.745Z,70.15
2022-12-31T10:58:06.133Z,70.13
2022-12-31T11:01:18.721Z,69.99
2022-12-31T11:04:57.652Z,70.04
2022-12-31T11:08:14.287Z,69.90
2022-12-31T11:11:37.178Z,69.97
2022-12-31T11:15:00.180Z,70.01
2022-12-31T11:18:07.719Z,70.07
2022-12-31T11:21:28.202Z,70.13
2022-12-31T11:24:56.569Z,70.19
2022-12-31T11:28:25.935Z,70.22
2022-12-31T11:31:53.626Z,70.44
2022-12-31T11:35:32.742Z,70.52
2022-12-31T11:38:43.371Z,70.54
2022-12-31T11:42:01.060Z,70.54
2022-12-31T11:45:02.877Z,70.50
2022-12-31T11:48:34.950Z,70.47
2022-12-31T11:52:06.857Z,70.46
2022-12-31T11:55:24.167Z,70.47
2022-12-31T11:58:28.580Z,70.38
2022-12-31T12:01:54.337Z,70.50
2022-12-31T12:05:03.703Z,70.46
2022-12-31T12:08:11.217Z,70.66
2022-12-31T12:11:23.908Z,70.74
2022-12-31T12:14:31.143Z,70.57
2022-12-31T12:17:34.269Z,70.68
2022-12-31T12:20:38.114Z,70.58
2022-12-31T12:23:40.462Z,70.58
2022-12-31T12:26:44.381Z,70.59
2022-12-31T12:29:47.354Z,70.52
2022-12-31T12:33:01.511Z,70.52
2022-12-31T12:36:11.717Z,70.59
2022-12-31T12:39:22.460Z,70.63
2022-12-31T12:42:23.990Z,70.71
2022-12-31T12:45:30.075Z,70.84
2022-12-31T12:48:40.947Z,70.93
2022-12-31T12:52:19.526Z,70.89
2022-12-31T12:56:02.918Z,70.91
2022-12-31T12:59:27.560Z,70.96
2022-12-31T13:02:41.497Z,70.82
2022-12-31T13:06:19.382Z,70.78
2022-12-31T13:09:29.979Z,70.95
2022-12-31T13:13:22.122Z,70.80
2022-12-31T13:16:22.398Z,70.85
2022-12-31T13:19:41.905Z,70.95
2022-12-31T13:22:54.647Z,70.58
2022-12-31T13:26:08.975Z,70.74
2022-12-31T13:29:18.933Z,70.77
2022-12-31T13:32:32.433Z,70.86
2022-12-31T13:35:43.560Z,70.76
2022-12-31T13:38:53.274Z,71.02
2022-12-31T13:42:05.289Z,70.84
2022-12-31T13:45:16.618Z,70.82
2022-12-31T13:48:26.386Z,70.82
2022-12-31T13:51:49.623Z,71.09
2022-12-31T13:55:10.247Z,70.97
2022-12-31T13:58:39.831Z,70.95
2022-12-31T14:02:06.501Z,70.93
2022-12-31T14:05:13.802Z,71.06
2022-12-31T14:08:15.934Z,71.11
2022-12-31T14:11:54.597Z,71.13
2022-12-31T14:15:13.816Z,71.31
2022-12-31T14:18:39.406Z,71.14
2022-12-31T14:22:01.844Z,71.32
2022-12-31T14:25:14.309Z,71.29
2022-12-31T14:28:21.426Z,71.38
2022-12-31T14:31:39.270Z,71.62
2022-12-31T14:35:01.909Z,71.52
2022-12-31T14:38:24.985Z,71.60
2022-12-31T14:41:29.508Z,71.65
2022-12-31T14:45:03.460Z,71.45
2022-12-31T14:48:28.590Z,71.21
2022-12-31T14:51:30.591Z,71.13
2022-12-31T14:54:37.357Z,70.94
2022-12-31T14:58:09.694Z,71.04
2022-12-31T15:01:18.921Z,71.13
2022-12-31T15:04:42.606Z,71.25
2022-12-31T15:08:04.282Z,71.23
2022-12-31T15:11:05.667Z,71.36
2022-12-31T15:14:37.566Z,71.30
2022-12-31T15:17:45.720Z,71.35
2022-12-31T15:21:20.701Z,71.55
2022-12-31T15:24:24.943Z,71.36
2022-12-31T15:27:26.340Z,71.22
2022-12-31T15:30:39.477Z,71.28
2022-12-31T15:33:55.127Z,71.10
2022-12-31T15:36:59.790Z,71.05
2022-12-31T15:40:29.485Z,70.88
2022-12-31T15:43:40.786Z,70.94
2022-12-31T15:46:43.210Z,71.05
2022-12-31T15:49:46.574Z,71.07
2022-12-31T15:53:03.557Z,71.25
2022-12-31T15:56:07.377Z,71.41
2022-12-31T15:59:14.379Z,71.35
2022-12-31T16:02:23.225Z,71.51
2022-12-31T16:05:27.076Z,71.40
2022-12-31T16:08:31.482Z,71.68
2022-12-31T16:11:41.510Z,71.64
2022-12-31T16:14:46.175Z,71.56
2022-12-31T16:18:02.173Z,71.38
2022-12-31T16:21:04.154Z,71.38
2022-12-31T16:24:25.872Z,71.13
2022-12-31T16:27:29.964Z,71.21
2022-12-31T16:30:33.765Z,71.04
2022-12-31T16:33:35.821Z,70.92
2022-12-31T16:36:37.370Z,71.13
2022-12-31T16:39:57.711Z,71.29
2022-12-31T16:43:00.117Z,71.47
2022-12-31T16:46:25.494Z,71.74
2022-12-31T16:49:30.389Z,72.04
2022-12-31T16:52:40.779Z,72.10
2022-12-31T16:55:42.286Z,72.43
2022-12-31T16:58:47.925Z,72.32
2022-12-31T17:01:50.346Z,72.38
2022-12-31T17:04:56.048Z,72.38
2022-12-31T17:07:58.248Z,72.68
2022-12-31T17:11:03.267Z,72.93
2022-12-31T17:14:07.769Z,73.11
2022-12-31T17:17:19.920Z,73.28
2022-12-31T17:20:29.112Z,73.40
2022-12-31T17:23:34.370Z,73.26
2022-12-31T17:26:38.003Z,73.27
2022-12-31T17:29:39.557Z,73.29
2022-12-31T17:32:42.639Z,73.17
2022-12-31T17:35:45.205Z,73.00
2022-12-31T17:38:46.767Z,73.19
2022-12-31T17:41:51.044Z,72.99
2022-12-31T17:44:56.683Z,73.13
2022-12-31T17:47:59.741Z,73.11
2022-12-31T17:51:01.998Z,73.32
2022-12-31T17:54:12.231Z,73.24
2022-12-31T17:57:27.743Z,73.14
2022-12-31T18:00:29.365Z,73.19
2022-12-31T18:03:30.834Z,73.48
2022-12-31T18:06:32.270Z,73.56
2022-12-31T18:09:33.725Z,72.86
2022-12-31T18:12:36.185Z,72.76
2022-12-31T18:15:37.633Z,72.23
2022-12-31T18:18:40.890Z,68.17
2022-12-31T18:21:44.579Z,66.39
2022-12-31T18:24:47.731Z,65.58
2022-12-31T18:27:50.718Z,66.66
2022-12-31T18:30:52.748Z,66.42
2022-12-31T18:33:56.258Z,66.08
2022-12-31T18:36:57.837Z,66.23
2022-12-31T18:39:59.299Z,65.65
2022-12-31T18:43:04.982Z,65.69
2022-12-31T18:46:12.305Z,64.63
2022-12-31T18:49:13.797Z,64.00
2022-12-31T18:52:21.543Z,64.22
2022-12-31T18:55:33.565Z,63.79
2022-12-31T18:58:35.089Z,63.98
2022-12-31T19:01:40.915Z,63.98
2022-12-31T19:04:42.519Z,63.80
2022-12-31T19:07:44.024Z,63.65
2022-12-31T19:10:46.370Z,63.15
2022-12-31T19:13:48.750Z,62.38
2022-12-31T19:16:52.505Z,62.61
2022-12-31T19:19:54.084Z,63.32
2022-12-31T19:22:56.218Z,63.82
2022-12-31T19:25:57.677Z,63.92
2022-12-31T19:28:59.111Z,64.14
2022-12-31T19:32:02.223Z,64.63
2022-12-31T19:35:04.112Z,64.89
2022-12-31T19:38:11.831Z,65.02
2022-12-31T19:41:18.788Z,65.32
2022-12-31T19:44:20.322Z,65.37
2022-12-31T19:47:21.881Z,65.50
2022-12-31T19:50:26.453Z,65.62
2022-12-31T19:53:28.555Z,66.11
2022-12-31T19:56:30.070Z,65.90
2022-12-31T19:59:31.529Z,66.11
2022-12-31T20:02:33.189Z,66.17
2022-12-31T20:05:34.860Z,66.20
2022-12-31T20:08:38.490Z,66.21
2022-12-31T20:11:40.140Z,66.00
2022-12-31T20:14:41.666Z,66.26
2022-12-31T20:17:43.319Z,66.01
2022-12-31T20:20:53.547Z,66.02
2022-12-31T20:23:57.150Z,66.07
2022-12-31T20:26:58.718Z,66.31
2022-12-31T20:30:00.342Z,66.55
2022-12-31T20:33:01.814Z,66.83
2022-12-31T20:36:08.859Z,66.57
2022-12-31T20:39:10.615Z,66.50
2022-12-31T20:42:12.131Z,66.70
2022-12-31T20:45:13.617Z,66.64
2022-12-31T20:48:15.091Z,66.58
2022-12-31T20:51:20.501Z,66.73
2022-12-31T20:54:22.060Z,66.82
2022-12-31T20:57:24.416Z,66.97
2022-12-31T21:00:28.096Z,67.14
2022-12-31T21:04:03.678Z,67.21
2022-12-31T21:06:52.180Z,67.19
2022-12-31T21:09:53.658Z,67.12
2022-12-31T21:12:55.140Z,67.04
2022-12-31T21:15:56.714Z,66.95
2022-12-31T21:18:58.675Z,66.87
2022-12-31T21:22:00.170Z,66.99
2022-12-31T21:25:02.512Z,67.28
2022-12-31T21:28:04.037Z,67.16
2022-12-31T21:31:07.372Z,67.00
2022-12-31T21:34:09.582Z,66.89
2022-12-31T21:37:11.098Z,67.17
2022-12-31T21:40:12.573Z,66.87
2022-12-31T21:43:15.276Z,66.99
2022-12-31T21:46:16.737Z,67.16
2022-12-31T21:49:18.199Z,66.88
2022-12-31T21:52:30.462Z,66.93
2022-12-31T21:55:50.677Z,66.61
2022-12-31T21:59:14.221Z,66.65
2022-12-31T22:02:34.246Z,66.62
2022-12-31T22:05:36.482Z,66.66
2022-12-31T22:08:40.051Z,66.67
2022-12-31T22:11:41.622Z,66.90
2022-12-31T22:15:15.120Z,66.77
2022-12-31T22:18:04.569Z,66.63
2022-12-31T22:21:12.272Z,66.58
2022-12-31T22:24:19.153Z,66.50
2022-12-31T22:27:28.830Z,66.56
2022-12-31T22:30:31.779Z,66.43
2022-12-31T22:33:33.404Z,66.72
2022-12-31T22:36:35.005Z,66.45
2022-12-31T22:39:43.672Z,66.57
2022-12-31T22:42:46.036Z,66.31
2022-12-31T22:45:47.522Z,66.28
2022-12-31T22:48:50.292Z,66.37
2022-12-31T22:51:55.169Z,66.10
2022-12-31T22:54:59.010Z,66.25
2022-12-31T22:58:00.500Z,66.56
2022-12-31T23:01:07.118Z,66.24
2022-12-31T23:04:08.825Z,66.39
2022-12-31T23:07:10.429Z,66.01
2022-12-31T23:10:30.438Z,66.69
2022-12-31T23:14:01.036Z,66.61
2022-12-31T23:17:30.172Z,66.42
2022-12-31T23:20:51.801Z,66.43
2022-12-31T23:23:53.711Z,66.27
2022-12-31T23:26:56.898Z,66.41
2022-12-31T23:29:58.393Z,66.20
2022-12-31T23:33:00.091Z,66.50
2022-12-31T23:36:05.724Z,66.35
2022-12-31T23:39:07.516Z,66.24
2022-12-31T23:42:08.987Z,66.46
2022-12-31T23:45:10.580Z,66.40
2022-12-31T23:48:11.999Z,66.45
2022-12-31T23:51:13.555Z,66.44
2022-12-31T23:54:15.797Z,66.43
2022-12-31T23:57:17.364Z,66.12
